sensor_id;sensor_type;location;lat;lon;timestamp;P1;durP1;ratioP1;P2;durP2;ratioP2
68010;SDS011;54794;48.348;7.878;2023-05-29T00:01:26;2.35;;;1.38;;
68010;SDS011;54794;48.348;7.878;2023-05-29T00:03:53;2.55;;;1.20;;
68010;SDS011;54794;48.348;7.878;2023-05-29T00:06:50;2.42;;;1.15;;
68010;SDS011;54794;48.348;7.878;2023-05-29T00:09:31;2.58;;;1.08;;
68010;SDS011;54794;48.348;7.878;2023-05-29T00:12:06;2.80;;;1.10;;
68010;SDS011;54794;48.348;7.878;2023-05-29T00:14:59;2.63;;;1.35;;
68010;SDS011;54794;48.348;7.878;2023-05-29T00:17:47;2.22;;;1.10;;
68010;SDS011;54794;48.348;7.878;2023-05-29T00:20:34;1.20;;;1.00;;
68010;SDS011;54794;48.348;7.878;2023-05-29T00:23:22;2.05;;;1.23;;
68010;SDS011;54794;48.348;7.878;2023-05-29T00:26:00;2.47;;;1.42;;
68010;SDS011;54794;48.348;7.878;2023-05-29T00:28:58;2.95;;;1.85;;
68010;SDS011;54794;48.348;7.878;2023-05-29T00:31:37;2.60;;;1.55;;
68010;SDS011;54794;48.348;7.878;2023-05-29T00:34:16;2.22;;;1.38;;
68010;SDS011;54794;48.348;7.878;2023-05-29T00:37:09;2.10;;;1.30;;
68010;SDS011;54794;48.348;7.878;2023-05-29T00:39:50;2.10;;;1.20;;
68010;SDS011;54794;48.348;7.878;2023-05-29T00:42:58;2.78;;;1.45;;
68010;SDS011;54794;48.348;7.878;2023-05-29T00:45:28;2.15;;;1.20;;
68010;SDS011;54794;48.348;7.878;2023-05-29T00:51:24;2.60;;;1.30;;
68010;SDS011;54794;48.348;7.878;2023-05-29T00:58:22;2.45;;;1.50;;
68010;SDS011;54794;48.348;7.878;2023-05-29T01:10:00;1.65;;;0.85;;
68010;SDS011;54794;48.348;7.878;2023-05-29T01:13:29;1.77;;;1.20;;
68010;SDS011;54794;48.348;7.878;2023-05-29T01:29:26;2.75;;;1.40;;
68010;SDS011;54794;48.348;7.878;2023-05-29T01:33:09;3.67;;;1.10;;
68010;SDS011;54794;48.348;7.878;2023-05-29T01:36:55;1.63;;;0.90;;
68010;SDS011;54794;48.348;7.878;2023-05-29T02:01:28;1.80;;;1.10;;
68010;SDS011;54794;48.348;7.878;2023-05-29T02:12:46;1.85;;;1.08;;
68010;SDS011;54794;48.348;7.878;2023-05-29T02:25:19;2.72;;;1.25;;
68010;SDS011;54794;48.348;7.878;2023-05-29T02:29:13;2.60;;;1.02;;
68010;SDS011;54794;48.348;7.878;2023-05-29T02:32:47;2.47;;;1.00;;
68010;SDS011;54794;48.348;7.878;2023-05-29T02:36:13;2.50;;;1.20;;
68010;SDS011;54794;48.348;7.878;2023-05-29T02:47:58;2.65;;;1.30;;
68010;SDS011;54794;48.348;7.878;2023-05-29T02:51:19;1.90;;;1.15;;
68010;SDS011;54794;48.348;7.878;2023-05-29T02:54:14;2.55;;;1.33;;
68010;SDS011;54794;48.348;7.878;2023-05-29T02:57:04;1.73;;;1.23;;
68010;SDS011;54794;48.348;7.878;2023-05-29T02:59:47;2.95;;;1.40;;
68010;SDS011;54794;48.348;7.878;2023-05-29T03:02:40;1.40;;;0.93;;
68010;SDS011;54794;48.348;7.878;2023-05-29T03:05:21;2.55;;;1.08;;
68010;SDS011;54794;48.348;7.878;2023-05-29T03:08:24;2.47;;;1.27;;
68010;SDS011;54794;48.348;7.878;2023-05-29T03:11:02;2.92;;;1.45;;
68010;SDS011;54794;48.348;7.878;2023-05-29T03:17:21;2.83;;;1.58;;
68010;SDS011;54794;48.348;7.878;2023-05-29T03:23:57;2.85;;;1.58;;
68010;SDS011;54794;48.348;7.878;2023-05-29T03:26:35;2.53;;;1.52;;
68010;SDS011;54794;48.348;7.878;2023-05-29T03:29:33;3.20;;;1.45;;
68010;SDS011;54794;48.348;7.878;2023-05-29T03:32:17;2.78;;;1.40;;
68010;SDS011;54794;48.348;7.878;2023-05-29T03:35:13;2.88;;;1.50;;
68010;SDS011;54794;48.348;7.878;2023-05-29T03:38:11;2.35;;;1.58;;
68010;SDS011;54794;48.348;7.878;2023-05-29T03:41:05;2.47;;;1.42;;
68010;SDS011;54794;48.348;7.878;2023-05-29T03:44:00;3.00;;;1.73;;
68010;SDS011;54794;48.348;7.878;2023-05-29T03:47:06;3.28;;;1.77;;
68010;SDS011;54794;48.348;7.878;2023-05-29T03:50:18;3.38;;;1.70;;
68010;SDS011;54794;48.348;7.878;2023-05-29T03:53:16;2.35;;;1.45;;
68010;SDS011;54794;48.348;7.878;2023-05-29T03:55:47;2.30;;;1.40;;
68010;SDS011;54794;48.348;7.878;2023-05-29T03:58:19;2.92;;;1.60;;
68010;SDS011;54794;48.348;7.878;2023-05-29T04:01:16;2.55;;;1.48;;
68010;SDS011;54794;48.348;7.878;2023-05-29T04:04:03;3.65;;;1.77;;
68010;SDS011;54794;48.348;7.878;2023-05-29T04:10:05;2.42;;;1.40;;
68010;SDS011;54794;48.348;7.878;2023-05-29T04:13:19;2.53;;;1.60;;
68010;SDS011;54794;48.348;7.878;2023-05-29T04:16:44;2.15;;;1.40;;
68010;SDS011;54794;48.348;7.878;2023-05-29T04:20:01;2.70;;;1.58;;
68010;SDS011;54794;48.348;7.878;2023-05-29T04:23:04;2.90;;;1.65;;
68010;SDS011;54794;48.348;7.878;2023-05-29T04:25:39;3.83;;;1.92;;
68010;SDS011;54794;48.348;7.878;2023-05-29T04:32:27;2.70;;;1.70;;
68010;SDS011;54794;48.348;7.878;2023-05-29T04:42:23;2.28;;;1.50;;
68010;SDS011;54794;48.348;7.878;2023-05-29T04:45:30;3.78;;;1.90;;
68010;SDS011;54794;48.348;7.878;2023-05-29T04:48:07;2.53;;;1.50;;
68010;SDS011;54794;48.348;7.878;2023-05-29T04:51:09;2.35;;;1.63;;
68010;SDS011;54794;48.348;7.878;2023-05-29T04:54:15;2.95;;;1.45;;
68010;SDS011;54794;48.348;7.878;2023-05-29T04:57:34;2.92;;;1.73;;
68010;SDS011;54794;48.348;7.878;2023-05-29T05:01:19;2.03;;;1.38;;
68010;SDS011;54794;48.348;7.878;2023-05-29T05:08:36;2.08;;;1.33;;
68010;SDS011;54794;48.348;7.878;2023-05-29T05:19:49;3.10;;;1.60;;
68010;SDS011;54794;48.348;7.878;2023-05-29T05:23:19;2.70;;;1.55;;
68010;SDS011;54794;48.348;7.878;2023-05-29T05:27:03;2.60;;;1.20;;
68010;SDS011;54794;48.348;7.878;2023-05-29T05:34:20;2.83;;;1.42;;
68010;SDS011;54794;48.348;7.878;2023-05-29T05:42:00;3.28;;;1.73;;
68010;SDS011;54794;48.348;7.878;2023-05-29T05:45:44;2.03;;;1.42;;
68010;SDS011;54794;48.348;7.878;2023-05-29T05:49:18;3.83;;;1.80;;
68010;SDS011;54794;48.348;7.878;2023-05-29T05:53:05;2.80;;;1.83;;
68010;SDS011;54794;48.348;7.878;2023-05-29T06:00:41;3.58;;;1.77;;
68010;SDS011;54794;48.348;7.878;2023-05-29T06:04:29;2.72;;;1.63;;
68010;SDS011;54794;48.348;7.878;2023-05-29T06:23:42;2.42;;;1.60;;
68010;SDS011;54794;48.348;7.878;2023-05-29T06:26:53;2.47;;;1.45;;
68010;SDS011;54794;48.348;7.878;2023-05-29T06:41:54;4.43;;;1.63;;
68010;SDS011;54794;48.348;7.878;2023-05-29T06:49:58;2.28;;;1.40;;
68010;SDS011;54794;48.348;7.878;2023-05-29T06:53:18;2.30;;;1.63;;
68010;SDS011;54794;48.348;7.878;2023-05-29T06:56:31;2.55;;;1.50;;
68010;SDS011;54794;48.348;7.878;2023-05-29T06:59:25;2.55;;;1.48;;
68010;SDS011;54794;48.348;7.878;2023-05-29T07:03:08;1.92;;;1.20;;
68010;SDS011;54794;48.348;7.878;2023-05-29T07:09:32;2.50;;;1.50;;
68010;SDS011;54794;48.348;7.878;2023-05-29T07:12:16;5.45;;;1.73;;
68010;SDS011;54794;48.348;7.878;2023-05-29T07:14:57;3.13;;;1.65;;
68010;SDS011;54794;48.348;7.878;2023-05-29T07:18:18;2.65;;;1.33;;
68010;SDS011;54794;48.348;7.878;2023-05-29T07:21:54;4.93;;;1.50;;
68010;SDS011;54794;48.348;7.878;2023-05-29T07:26:14;2.38;;;1.25;;
68010;SDS011;54794;48.348;7.878;2023-05-29T07:39:17;2.15;;;1.25;;
68010;SDS011;54794;48.348;7.878;2023-05-29T07:41:54;2.47;;;1.33;;
68010;SDS011;54794;48.348;7.878;2023-05-29T07:44:32;2.78;;;1.50;;
68010;SDS011;54794;48.348;7.878;2023-05-29T07:47:16;1.98;;;1.08;;
68010;SDS011;54794;48.348;7.878;2023-05-29T07:50:04;2.70;;;1.13;;
68010;SDS011;54794;48.348;7.878;2023-05-29T07:53:20;2.22;;;1.05;;
68010;SDS011;54794;48.348;7.878;2023-05-29T07:56:10;2.58;;;1.20;;
68010;SDS011;54794;48.348;7.878;2023-05-29T07:59:20;2.72;;;1.30;;
68010;SDS011;54794;48.348;7.878;2023-05-29T08:01:56;2.38;;;1.42;;
68010;SDS011;54794;48.348;7.878;2023-05-29T08:04:38;2.45;;;1.30;;
68010;SDS011;54794;48.348;7.878;2023-05-29T08:07:05;2.70;;;1.20;;
68010;SDS011;54794;48.348;7.878;2023-05-29T08:09:43;2.80;;;1.33;;
68010;SDS011;54794;48.348;7.878;2023-05-29T08:12:19;2.60;;;1.30;;
68010;SDS011;54794;48.348;7.878;2023-05-29T08:15:01;2.05;;;1.20;;
68010;SDS011;54794;48.348;7.878;2023-05-29T08:17:43;2.10;;;1.10;;
68010;SDS011;54794;48.348;7.878;2023-05-29T08:20:21;2.25;;;1.15;;
68010;SDS011;54794;48.348;7.878;2023-05-29T08:26:46;2.20;;;1.10;;
68010;SDS011;54794;48.348;7.878;2023-05-29T08:29:49;2.63;;;1.05;;
68010;SDS011;54794;48.348;7.878;2023-05-29T08:35:57;1.35;;;0.90;;
68010;SDS011;54794;48.348;7.878;2023-05-29T08:39:13;2.85;;;1.05;;
68010;SDS011;54794;48.348;7.878;2023-05-29T08:45:54;2.08;;;1.10;;
68010;SDS011;54794;48.348;7.878;2023-05-29T08:49:04;1.40;;;0.90;;
68010;SDS011;54794;48.348;7.878;2023-05-29T08:51:44;3.60;;;1.30;;
68010;SDS011;54794;48.348;7.878;2023-05-29T08:54:13;2.65;;;1.30;;
68010;SDS011;54794;48.348;7.878;2023-05-29T08:56:55;3.30;;;1.10;;
68010;SDS011;54794;48.348;7.878;2023-05-29T09:00:47;2.10;;;1.33;;
68010;SDS011;54794;48.348;7.878;2023-05-29T09:04:03;1.75;;;1.08;;
68010;SDS011;54794;48.348;7.878;2023-05-29T09:12:08;2.65;;;1.10;;
68010;SDS011;54794;48.348;7.878;2023-05-29T09:16:30;1.77;;;1.08;;
68010;SDS011;54794;48.348;7.878;2023-05-29T09:29:01;1.58;;;1.10;;
68010;SDS011;54794;48.348;7.878;2023-05-29T09:35:45;1.73;;;1.02;;
68010;SDS011;54794;48.348;7.878;2023-05-29T09:39:05;2.28;;;1.15;;
68010;SDS011;54794;48.348;7.878;2023-05-29T09:41:31;1.38;;;0.90;;
68010;SDS011;54794;48.348;7.878;2023-05-29T09:44:36;1.45;;;0.80;;
68010;SDS011;54794;48.348;7.878;2023-05-29T09:52:24;2.05;;;0.85;;
68010;SDS011;54794;48.348;7.878;2023-05-29T10:12:37;1.92;;;1.00;;
68010;SDS011;54794;48.348;7.878;2023-05-29T10:15:38;1.95;;;1.15;;
68010;SDS011;54794;48.348;7.878;2023-05-29T10:18:42;1.98;;;0.90;;
68010;SDS011;54794;48.348;7.878;2023-05-29T10:21:44;1.15;;;0.98;;
68010;SDS011;54794;48.348;7.878;2023-05-29T10:24:19;1.98;;;1.05;;
68010;SDS011;54794;48.348;7.878;2023-05-29T10:27:04;2.00;;;1.00;;
68010;SDS011;54794;48.348;7.878;2023-05-29T10:49:48;2.22;;;1.10;;
68010;SDS011;54794;48.348;7.878;2023-05-29T10:53:39;3.65;;;1.20;;
68010;SDS011;54794;48.348;7.878;2023-05-29T11:01:28;2.08;;;1.13;;
68010;SDS011;54794;48.348;7.878;2023-05-29T11:05:41;2.30;;;1.30;;
68010;SDS011;54794;48.348;7.878;2023-05-29T11:09:43;2.65;;;1.25;;
68010;SDS011;54794;48.348;7.878;2023-05-29T11:19:42;2.83;;;1.20;;
68010;SDS011;54794;48.348;7.878;2023-05-29T11:23:06;1.63;;;1.02;;
68010;SDS011;54794;48.348;7.878;2023-05-29T11:26:03;1.80;;;1.10;;
68010;SDS011;54794;48.348;7.878;2023-05-29T11:29:55;2.95;;;0.63;;
68010;SDS011;54794;48.348;7.878;2023-05-29T11:33:32;1.42;;;1.17;;
68010;SDS011;54794;48.348;7.878;2023-05-29T11:40:31;2.10;;;1.17;;
68010;SDS011;54794;48.348;7.878;2023-05-29T11:54:25;4.53;;;1.77;;
68010;SDS011;54794;48.348;7.878;2023-05-29T12:01:29;1.23;;;1.05;;
68010;SDS011;54794;48.348;7.878;2023-05-29T12:04:44;2.72;;;1.25;;
68010;SDS011;54794;48.348;7.878;2023-05-29T12:08:11;1.60;;;1.20;;
68010;SDS011;54794;48.348;7.878;2023-05-29T12:20:50;2.63;;;1.38;;
68010;SDS011;54794;48.348;7.878;2023-05-29T12:24:31;1.55;;;1.00;;
68010;SDS011;54794;48.348;7.878;2023-05-29T12:28:11;1.98;;;1.40;;
68010;SDS011;54794;48.348;7.878;2023-05-29T12:38:34;1.55;;;1.33;;
68010;SDS011;54794;48.348;7.878;2023-05-29T12:42:26;1.60;;;0.98;;
68010;SDS011;54794;48.348;7.878;2023-05-29T12:51:17;1.98;;;1.48;;
68010;SDS011;54794;48.348;7.878;2023-05-29T12:54:53;1.75;;;1.08;;
68010;SDS011;54794;48.348;7.878;2023-05-29T12:58:43;2.10;;;1.40;;
68010;SDS011;54794;48.348;7.878;2023-05-29T13:01:31;2.10;;;1.27;;
68010;SDS011;54794;48.348;7.878;2023-05-29T13:04:07;3.13;;;1.30;;
68010;SDS011;54794;48.348;7.878;2023-05-29T13:07:18;1.30;;;1.00;;
68010;SDS011;54794;48.348;7.878;2023-05-29T13:10:01;2.08;;;1.25;;
68010;SDS011;54794;48.348;7.878;2023-05-29T13:17:02;1.55;;;1.10;;
68010;SDS011;54794;48.348;7.878;2023-05-29T13:19:44;2.20;;;1.38;;
68010;SDS011;54794;48.348;7.878;2023-05-29T13:22:23;1.30;;;1.10;;
68010;SDS011;54794;48.348;7.878;2023-05-29T13:25:44;3.00;;;1.38;;
68010;SDS011;54794;48.348;7.878;2023-05-29T13:45:30;1.70;;;1.33;;
68010;SDS011;54794;48.348;7.878;2023-05-29T13:52:17;1.27;;;0.93;;
68010;SDS011;54794;48.348;7.878;2023-05-29T14:06:00;3.15;;;1.15;;
68010;SDS011;54794;48.348;7.878;2023-05-29T14:08:36;1.70;;;1.00;;
68010;SDS011;54794;48.348;7.878;2023-05-29T14:14:51;2.20;;;1.15;;
68010;SDS011;54794;48.348;7.878;2023-05-29T14:22:11;2.33;;;0.90;;
68010;SDS011;54794;48.348;7.878;2023-05-29T14:36:40;1.58;;;0.90;;
68010;SDS011;54794;48.348;7.878;2023-05-29T14:39:11;1.30;;;0.88;;
68010;SDS011;54794;48.348;7.878;2023-05-29T14:41:45;1.30;;;0.93;;
68010;SDS011;54794;48.348;7.878;2023-05-29T14:44:26;2.08;;;1.20;;
68010;SDS011;54794;48.348;7.878;2023-05-29T14:46:59;3.60;;;1.15;;
68010;SDS011;54794;48.348;7.878;2023-05-29T14:49:32;1.40;;;1.08;;
68010;SDS011;54794;48.348;7.878;2023-05-29T14:52:09;4.00;;;1.30;;
68010;SDS011;54794;48.348;7.878;2023-05-29T14:54:47;1.73;;;1.00;;
68010;SDS011;54794;48.348;7.878;2023-05-29T14:57:20;1.83;;;1.10;;
68010;SDS011;54794;48.348;7.878;2023-05-29T14:59:49;1.70;;;1.00;;
68010;SDS011;54794;48.348;7.878;2023-05-29T15:02:30;1.10;;;0.90;;
68010;SDS011;54794;48.348;7.878;2023-05-29T15:05:14;1.63;;;0.82;;
68010;SDS011;54794;48.348;7.878;2023-05-29T15:08:19;1.63;;;1.00;;
68010;SDS011;54794;48.348;7.878;2023-05-29T15:14:40;1.10;;;0.80;;
68010;SDS011;54794;48.348;7.878;2023-05-29T15:21:37;4.65;;;1.10;;
68010;SDS011;54794;48.348;7.878;2023-05-29T15:24:36;1.58;;;1.00;;
68010;SDS011;54794;48.348;7.878;2023-05-29T15:31:15;4.65;;;1.38;;
68010;SDS011;54794;48.348;7.878;2023-05-29T15:34:10;1.65;;;1.10;;
68010;SDS011;54794;48.348;7.878;2023-05-29T15:36:38;1.88;;;1.25;;
68010;SDS011;54794;48.348;7.878;2023-05-29T15:39:37;1.85;;;0.90;;
68010;SDS011;54794;48.348;7.878;2023-05-29T15:45:59;1.50;;;1.10;;
68010;SDS011;54794;48.348;7.878;2023-05-29T15:48:43;3.42;;;1.20;;
68010;SDS011;54794;48.348;7.878;2023-05-29T15:51:30;2.05;;;0.98;;
68010;SDS011;54794;48.348;7.878;2023-05-29T15:54:07;0.85;;;0.70;;
68010;SDS011;54794;48.348;7.878;2023-05-29T15:56:51;1.30;;;0.85;;
68010;SDS011;54794;48.348;7.878;2023-05-29T15:59:31;1.95;;;1.08;;
68010;SDS011;54794;48.348;7.878;2023-05-29T16:02:26;1.40;;;0.88;;
68010;SDS011;54794;48.348;7.878;2023-05-29T16:05:18;2.33;;;0.90;;
68010;SDS011;54794;48.348;7.878;2023-05-29T16:10:42;2.42;;;1.13;;
68010;SDS011;54794;48.348;7.878;2023-05-29T16:13:15;1.25;;;0.98;;
68010;SDS011;54794;48.348;7.878;2023-05-29T16:16:13;2.80;;;1.20;;
68010;SDS011;54794;48.348;7.878;2023-05-29T16:19:03;1.27;;;1.10;;
68010;SDS011;54794;48.348;7.878;2023-05-29T16:21:52;1.25;;;0.80;;
68010;SDS011;54794;48.348;7.878;2023-05-29T16:24:29;3.10;;;1.00;;
68010;SDS011;54794;48.348;7.878;2023-05-29T16:27:03;2.13;;;0.95;;
68010;SDS011;54794;48.348;7.878;2023-05-29T16:29:45;3.38;;;0.80;;
68010;SDS011;54794;48.348;7.878;2023-05-29T16:32:28;1.20;;;0.95;;
68010;SDS011;54794;48.348;7.878;2023-05-29T16:35:02;1.50;;;1.10;;
68010;SDS011;54794;48.348;7.878;2023-05-29T16:37:42;1.10;;;0.90;;
68010;SDS011;54794;48.348;7.878;2023-05-29T16:40:17;1.27;;;0.80;;
68010;SDS011;54794;48.348;7.878;2023-05-29T16:42:56;1.45;;;0.82;;
68010;SDS011;54794;48.348;7.878;2023-05-29T16:45:28;1.38;;;0.98;;
68010;SDS011;54794;48.348;7.878;2023-05-29T16:51:16;3.33;;;0.90;;
68010;SDS011;54794;48.348;7.878;2023-05-29T16:53:57;1.33;;;1.00;;
68010;SDS011;54794;48.348;7.878;2023-05-29T16:58:00;1.27;;;1.00;;
68010;SDS011;54794;48.348;7.878;2023-05-29T17:08:43;1.13;;;0.90;;
68010;SDS011;54794;48.348;7.878;2023-05-29T17:12:06;1.10;;;0.80;;
68010;SDS011;54794;48.348;7.878;2023-05-29T17:19:25;2.65;;;0.82;;
68010;SDS011;54794;48.348;7.878;2023-05-29T17:23:04;2.75;;;1.10;;
68010;SDS011;54794;48.348;7.878;2023-05-29T17:25:52;1.88;;;1.00;;
68010;SDS011;54794;48.348;7.878;2023-05-29T17:32:27;0.93;;;0.73;;
68010;SDS011;54794;48.348;7.878;2023-05-29T17:34:59;2.05;;;1.00;;
68010;SDS011;54794;48.348;7.878;2023-05-29T17:38:02;0.90;;;0.70;;
68010;SDS011;54794;48.348;7.878;2023-05-29T17:40:38;0.85;;;0.70;;
68010;SDS011;54794;48.348;7.878;2023-05-29T17:43:22;1.25;;;0.75;;
68010;SDS011;54794;48.348;7.878;2023-05-29T17:45:58;0.90;;;0.70;;
68010;SDS011;54794;48.348;7.878;2023-05-29T17:52:13;1.35;;;0.80;;
68010;SDS011;54794;48.348;7.878;2023-05-29T17:55:35;1.50;;;0.80;;
68010;SDS011;54794;48.348;7.878;2023-05-29T17:58:50;1.00;;;0.70;;
68010;SDS011;54794;48.348;7.878;2023-05-29T18:01:40;1.40;;;0.90;;
68010;SDS011;54794;48.348;7.878;2023-05-29T18:04:13;1.00;;;0.80;;
68010;SDS011;54794;48.348;7.878;2023-05-29T18:07:03;0.90;;;0.70;;
68010;SDS011;54794;48.348;7.878;2023-05-29T18:09:48;1.52;;;0.95;;
68010;SDS011;54794;48.348;7.878;2023-05-29T18:12:50;1.27;;;0.80;;
68010;SDS011;54794;48.348;7.878;2023-05-29T18:15:31;1.77;;;0.75;;
68010;SDS011;54794;48.348;7.878;2023-05-29T18:18:19;1.73;;;0.95;;
68010;SDS011;54794;48.348;7.878;2023-05-29T18:22:02;0.85;;;0.65;;
68010;SDS011;54794;48.348;7.878;2023-05-29T18:29:01;0.90;;;0.63;;
68010;SDS011;54794;48.348;7.878;2023-05-29T18:36:04;2.55;;;0.80;;
68010;SDS011;54794;48.348;7.878;2023-05-29T18:38:50;1.20;;;0.80;;
68010;SDS011;54794;48.348;7.878;2023-05-29T18:41:53;1.08;;;0.80;;
68010;SDS011;54794;48.348;7.878;2023-05-29T18:49:47;3.70;;;1.00;;
68010;SDS011;54794;48.348;7.878;2023-05-29T18:52:55;0.80;;;0.55;;
68010;SDS011;54794;48.348;7.878;2023-05-29T18:56:34;1.08;;;0.80;;
68010;SDS011;54794;48.348;7.878;2023-05-29T19:00:23;1.73;;;0.98;;
68010;SDS011;54794;48.348;7.878;2023-05-29T19:12:28;1.30;;;0.70;;
68010;SDS011;54794;48.348;7.878;2023-05-29T19:16:31;0.77;;;0.50;;
68010;SDS011;54794;48.348;7.878;2023-05-29T19:19:27;1.00;;;0.57;;
68010;SDS011;54794;48.348;7.878;2023-05-29T19:34:39;1.13;;;0.70;;
68010;SDS011;54794;48.348;7.878;2023-05-29T19:37:25;1.42;;;0.88;;
68010;SDS011;54794;48.348;7.878;2023-05-29T19:40:07;1.50;;;0.60;;
68010;SDS011;54794;48.348;7.878;2023-05-29T19:43:10;0.77;;;0.60;;
68010;SDS011;54794;48.348;7.878;2023-05-29T19:46:17;0.90;;;0.60;;
68010;SDS011;54794;48.348;7.878;2023-05-29T19:49:40;0.80;;;0.52;;
68010;SDS011;54794;48.348;7.878;2023-05-29T19:53:05;0.90;;;0.60;;
68010;SDS011;54794;48.348;7.878;2023-05-29T19:55:50;2.05;;;0.55;;
68010;SDS011;54794;48.348;7.878;2023-05-29T19:58:42;1.38;;;0.60;;
68010;SDS011;54794;48.348;7.878;2023-05-29T20:05:15;1.20;;;0.90;;
68010;SDS011;54794;48.348;7.878;2023-05-29T20:12:37;0.85;;;0.60;;
68010;SDS011;54794;48.348;7.878;2023-05-29T20:15:42;0.73;;;0.60;;
68010;SDS011;54794;48.348;7.878;2023-05-29T20:19:11;0.85;;;0.60;;
68010;SDS011;54794;48.348;7.878;2023-05-29T20:22:16;1.13;;;0.80;;
68010;SDS011;54794;48.348;7.878;2023-05-29T20:25:50;1.00;;;0.70;;
68010;SDS011;54794;48.348;7.878;2023-05-29T20:29:04;0.87;;;0.53;;
68010;SDS011;54794;48.348;7.878;2023-05-29T20:32:00;1.85;;;0.95;;
68010;SDS011;54794;48.348;7.878;2023-05-29T20:35:50;2.15;;;0.80;;
68010;SDS011;54794;48.348;7.878;2023-05-29T20:38:49;1.35;;;0.88;;
68010;SDS011;54794;48.348;7.878;2023-05-29T20:41:39;1.90;;;0.70;;
68010;SDS011;54794;48.348;7.878;2023-05-29T20:44:19;1.50;;;0.77;;
68010;SDS011;54794;48.348;7.878;2023-05-29T20:50:18;0.90;;;0.60;;
68010;SDS011;54794;48.348;7.878;2023-05-29T20:53:14;1.08;;;0.70;;
68010;SDS011;54794;48.348;7.878;2023-05-29T21:00:34;1.40;;;0.70;;
68010;SDS011;54794;48.348;7.878;2023-05-29T21:04:10;2.25;;;0.93;;
68010;SDS011;54794;48.348;7.878;2023-05-29T21:07:15;0.98;;;0.80;;
68010;SDS011;54794;48.348;7.878;2023-05-29T21:11:08;1.05;;;0.63;;
68010;SDS011;54794;48.348;7.878;2023-05-29T21:14:10;1.13;;;0.50;;
68010;SDS011;54794;48.348;7.878;2023-05-29T21:17:11;1.03;;;0.70;;
68010;SDS011;54794;48.348;7.878;2023-05-29T21:21:00;2.28;;;0.95;;
68010;SDS011;54794;48.348;7.878;2023-05-29T21:24:07;0.90;;;0.65;;
68010;SDS011;54794;48.348;7.878;2023-05-29T21:31:39;1.23;;;0.80;;
68010;SDS011;54794;48.348;7.878;2023-05-29T21:35:30;1.85;;;0.77;;
68010;SDS011;54794;48.348;7.878;2023-05-29T21:38:19;1.23;;;0.80;;
68010;SDS011;54794;48.348;7.878;2023-05-29T21:41:17;1.30;;;0.68;;
68010;SDS011;54794;48.348;7.878;2023-05-29T21:44:07;1.13;;;0.93;;
68010;SDS011;54794;48.348;7.878;2023-05-29T21:47:39;1.45;;;0.75;;
68010;SDS011;54794;48.348;7.878;2023-05-29T21:50:49;1.50;;;0.70;;
68010;SDS011;54794;48.348;7.878;2023-05-29T21:53:55;1.45;;;0.57;;
68010;SDS011;54794;48.348;7.878;2023-05-29T21:57:30;1.33;;;0.65;;
68010;SDS011;54794;48.348;7.878;2023-05-29T22:04:48;2.42;;;0.70;;
68010;SDS011;54794;48.348;7.878;2023-05-29T22:08:39;0.90;;;0.70;;
68010;SDS011;54794;48.348;7.878;2023-05-29T22:15:36;1.75;;;0.90;;
68010;SDS011;54794;48.348;7.878;2023-05-29T22:22:54;1.52;;;0.85;;
68010;SDS011;54794;48.348;7.878;2023-05-29T22:26:10;1.80;;;0.85;;
68010;SDS011;54794;48.348;7.878;2023-05-29T22:29:30;1.10;;;0.80;;
68010;SDS011;54794;48.348;7.878;2023-05-29T22:36:18;0.80;;;0.60;;
68010;SDS011;54794;48.348;7.878;2023-05-29T22:39:34;2.38;;;1.20;;
68010;SDS011;54794;48.348;7.878;2023-05-29T22:43:14;0.90;;;0.70;;
68010;SDS011;54794;48.348;7.878;2023-05-29T22:46:38;1.10;;;0.70;;
68010;SDS011;54794;48.348;7.878;2023-05-29T22:49:45;1.15;;;0.80;;
68010;SDS011;54794;48.348;7.878;2023-05-29T22:55:31;1.50;;;0.80;;
68010;SDS011;54794;48.348;7.878;2023-05-29T22:58:08;3.85;;;1.00;;
68010;SDS011;54794;48.348;7.878;2023-05-29T23:00:43;2.97;;;1.10;;
68010;SDS011;54794;48.348;7.878;2023-05-29T23:03:27;1.83;;;0.90;;
68010;SDS011;54794;48.348;7.878;2023-05-29T23:06:10;1.95;;;0.93;;
68010;SDS011;54794;48.348;7.878;2023-05-29T23:08:57;1.48;;;0.95;;
68010;SDS011;54794;48.348;7.878;2023-05-29T23:11:35;2.22;;;1.10;;
68010;SDS011;54794;48.348;7.878;2023-05-29T23:14:10;1.08;;;0.70;;
68010;SDS011;54794;48.348;7.878;2023-05-29T23:16:47;1.50;;;1.00;;
68010;SDS011;54794;48.348;7.878;2023-05-29T23:19:33;1.33;;;0.90;;
68010;SDS011;54794;48.348;7.878;2023-05-29T23:22:08;1.85;;;0.90;;
68010;SDS011;54794;48.348;7.878;2023-05-29T23:25:09;1.52;;;0.98;;
68010;SDS011;54794;48.348;7.878;2023-05-29T23:27:52;1.05;;;0.70;;
68010;SDS011;54794;48.348;7.878;2023-05-29T23:30:27;4.95;;;0.90;;
68010;SDS011;54794;48.348;7.878;2023-05-29T23:33:00;1.60;;;0.85;;
68010;SDS011;54794;48.348;7.878;2023-05-29T23:35:39;2.58;;;1.25;;
68010;SDS011;54794;48.348;7.878;2023-05-29T23:38:14;3.40;;;1.23;;
68010;SDS011;54794;48.348;7.878;2023-05-29T23:46:30;1.20;;;0.80;;
68010;SDS011;54794;48.348;7.878;2023-05-29T23:49:04;1.52;;;0.90;;
68010;SDS011;54794;48.348;7.878;2023-05-29T23:52:00;2.20;;;1.00;;
68010;SDS011;54794;48.348;7.878;2023-05-29T23:54:38;1.10;;;0.90;;
68010;SDS011;54794;48.348;7.878;2023-05-29T23:57:27;2.28;;;1.05;;
